sensor_id;sensor_type;location;lat;lon;timestamp;P1;durP1;ratioP1;P2;durP2;ratioP2
32786;SDS011;19139;49.372;8.580;2023-02-19T00:02:09;1.43;;;0.90;;
32786;SDS011;19139;49.372;8.580;2023-02-19T00:04:40;1.77;;;0.90;;
32786;SDS011;19139;49.372;8.580;2023-02-19T00:07:12;2.37;;;1.20;;
32786;SDS011;19139;49.372;8.580;2023-02-19T00:09:39;1.63;;;1.17;;
32786;SDS011;19139;49.372;8.580;2023-02-19T00:12:10;1.10;;;1.00;;
32786;SDS011;19139;49.372;8.580;2023-02-19T00:14:41;2.77;;;1.23;;
32786;SDS011;19139;49.372;8.580;2023-02-19T00:17:08;2.57;;;1.40;;
32786;SDS011;19139;49.372;8.580;2023-02-19T00:19:39;1.97;;;1.53;;
32786;SDS011;19139;49.372;8.580;2023-02-19T00:22:11;1.27;;;1.07;;
32786;SDS011;19139;49.372;8.580;2023-02-19T00:24:42;2.33;;;1.17;;
32786;SDS011;19139;49.372;8.580;2023-02-19T00:27:09;1.27;;;0.90;;
32786;SDS011;19139;49.372;8.580;2023-02-19T00:29:36;1.50;;;1.10;;
32786;SDS011;19139;49.372;8.580;2023-02-19T00:32:02;1.67;;;0.97;;
32786;SDS011;19139;49.372;8.580;2023-02-19T00:34:29;2.03;;;1.00;;
32786;SDS011;19139;49.372;8.580;2023-02-19T00:36:56;1.83;;;1.50;;
32786;SDS011;19139;49.372;8.580;2023-02-19T00:39:23;2.97;;;1.87;;
32786;SDS011;19139;49.372;8.580;2023-02-19T00:41:49;4.13;;;1.97;;
32786;SDS011;19139;49.372;8.580;2023-02-19T00:44:16;3.70;;;2.07;;
32786;SDS011;19139;49.372;8.580;2023-02-19T00:46:44;3.03;;;2.17;;
32786;SDS011;19139;49.372;8.580;2023-02-19T00:49:14;2.10;;;1.70;;
32786;SDS011;19139;49.372;8.580;2023-02-19T00:51:43;3.83;;;2.03;;
32786;SDS011;19139;49.372;8.580;2023-02-19T00:54:10;2.03;;;1.80;;
32786;SDS011;19139;49.372;8.580;2023-02-19T00:56:37;5.47;;;2.80;;
32786;SDS011;19139;49.372;8.580;2023-02-19T00:59:04;2.67;;;2.23;;
32786;SDS011;19139;49.372;8.580;2023-02-19T01:01:31;4.63;;;2.13;;
32786;SDS011;19139;49.372;8.580;2023-02-19T01:04:03;2.50;;;1.60;;
32786;SDS011;19139;49.372;8.580;2023-02-19T01:06:32;2.07;;;1.60;;
32786;SDS011;19139;49.372;8.580;2023-02-19T01:08:59;2.90;;;1.70;;
32786;SDS011;19139;49.372;8.580;2023-02-19T01:11:26;3.03;;;1.97;;
32786;SDS011;19139;49.372;8.580;2023-02-19T01:13:57;2.10;;;1.40;;
32786;SDS011;19139;49.372;8.580;2023-02-19T01:16:25;3.03;;;1.93;;
32786;SDS011;19139;49.372;8.580;2023-02-19T01:18:52;2.50;;;1.70;;
32786;SDS011;19139;49.372;8.580;2023-02-19T01:21:26;2.83;;;1.90;;
32786;SDS011;19139;49.372;8.580;2023-02-19T01:23:59;2.93;;;1.90;;
32786;SDS011;19139;49.372;8.580;2023-02-19T01:26:31;1.87;;;1.50;;
32786;SDS011;19139;49.372;8.580;2023-02-19T01:28:58;1.90;;;1.33;;
32786;SDS011;19139;49.372;8.580;2023-02-19T01:31:30;2.33;;;1.53;;
32786;SDS011;19139;49.372;8.580;2023-02-19T01:34:03;2.00;;;1.50;;
32786;SDS011;19139;49.372;8.580;2023-02-19T01:36:35;3.17;;;2.00;;
32786;SDS011;19139;49.372;8.580;2023-02-19T01:39:07;2.23;;;1.70;;
32786;SDS011;19139;49.372;8.580;2023-02-19T01:41:40;2.20;;;1.57;;
32786;SDS011;19139;49.372;8.580;2023-02-19T01:46:48;2.80;;;1.80;;
32786;SDS011;19139;49.372;8.580;2023-02-19T01:49:28;2.47;;;1.60;;
32786;SDS011;19139;49.372;8.580;2023-02-19T01:52:04;2.67;;;1.73;;
32786;SDS011;19139;49.372;8.580;2023-02-19T01:54:41;2.27;;;1.57;;
32786;SDS011;19139;49.372;8.580;2023-02-19T01:57:22;2.83;;;1.50;;
32786;SDS011;19139;49.372;8.580;2023-02-19T01:59:57;2.77;;;1.30;;
32786;SDS011;19139;49.372;8.580;2023-02-19T02:02:34;2.00;;;1.40;;
32786;SDS011;19139;49.372;8.580;2023-02-19T02:05:02;2.47;;;1.50;;
32786;SDS011;19139;49.372;8.580;2023-02-19T02:07:28;3.13;;;1.40;;
32786;SDS011;19139;49.372;8.580;2023-02-19T02:10:18;2.03;;;1.60;;
32786;SDS011;19139;49.372;8.580;2023-02-19T02:12:51;2.90;;;1.90;;
32786;SDS011;19139;49.372;8.580;2023-02-19T02:15:28;2.10;;;1.40;;
32786;SDS011;19139;49.372;8.580;2023-02-19T02:18:27;3.13;;;1.70;;
32786;SDS011;19139;49.372;8.580;2023-02-19T02:32:37;3.17;;;1.50;;
32786;SDS011;19139;49.372;8.580;2023-02-19T02:35:25;1.57;;;1.30;;
32786;SDS011;19139;49.372;8.580;2023-02-19T02:38:02;2.53;;;1.67;;
32786;SDS011;19139;49.372;8.580;2023-02-19T02:40:38;2.10;;;1.40;;
32786;SDS011;19139;49.372;8.580;2023-02-19T02:43:13;1.83;;;1.33;;
32786;SDS011;19139;49.372;8.580;2023-02-19T02:45:44;2.03;;;1.40;;
32786;SDS011;19139;49.372;8.580;2023-02-19T02:54:17;2.00;;;1.10;;
32786;SDS011;19139;49.372;8.580;2023-02-19T02:57:12;2.43;;;1.43;;
32786;SDS011;19139;49.372;8.580;2023-02-19T02:59:45;1.93;;;1.33;;
32786;SDS011;19139;49.372;8.580;2023-02-19T03:02:20;1.60;;;1.13;;
32786;SDS011;19139;49.372;8.580;2023-02-19T03:07:38;2.27;;;1.50;;
32786;SDS011;19139;49.372;8.580;2023-02-19T03:10:15;2.27;;;1.40;;
32786;SDS011;19139;49.372;8.580;2023-02-19T03:12:45;2.10;;;1.43;;
32786;SDS011;19139;49.372;8.580;2023-02-19T03:15:32;2.03;;;1.40;;
32786;SDS011;19139;49.372;8.580;2023-02-19T03:18:23;2.03;;;1.40;;
32786;SDS011;19139;49.372;8.580;2023-02-19T03:21:12;2.03;;;1.67;;
32786;SDS011;19139;49.372;8.580;2023-02-19T03:23:42;2.30;;;1.43;;
32786;SDS011;19139;49.372;8.580;2023-02-19T03:26:29;2.03;;;1.40;;
32786;SDS011;19139;49.372;8.580;2023-02-19T03:29:03;2.10;;;1.17;;
32786;SDS011;19139;49.372;8.580;2023-02-19T03:31:52;1.87;;;1.20;;
32786;SDS011;19139;49.372;8.580;2023-02-19T03:34:35;1.53;;;1.10;;
32786;SDS011;19139;49.372;8.580;2023-02-19T03:37:11;1.83;;;1.33;;
32786;SDS011;19139;49.372;8.580;2023-02-19T03:39:41;1.60;;;1.30;;
32786;SDS011;19139;49.372;8.580;2023-02-19T03:44:43;3.83;;;1.83;;
32786;SDS011;19139;49.372;8.580;2023-02-19T03:52:18;1.60;;;1.23;;
32786;SDS011;19139;49.372;8.580;2023-02-19T03:55:15;1.83;;;1.33;;
32786;SDS011;19139;49.372;8.580;2023-02-19T03:57:52;1.73;;;1.30;;
32786;SDS011;19139;49.372;8.580;2023-02-19T04:00:31;2.33;;;1.20;;
32786;SDS011;19139;49.372;8.580;2023-02-19T04:06:02;1.60;;;1.00;;
32786;SDS011;19139;49.372;8.580;2023-02-19T04:08:33;1.80;;;1.40;;
32786;SDS011;19139;49.372;8.580;2023-02-19T04:11:01;1.70;;;1.23;;
32786;SDS011;19139;49.372;8.580;2023-02-19T04:13:30;2.03;;;1.03;;
32786;SDS011;19139;49.372;8.580;2023-02-19T04:16:02;2.50;;;1.30;;
32786;SDS011;19139;49.372;8.580;2023-02-19T04:18:34;1.63;;;1.33;;
32786;SDS011;19139;49.372;8.580;2023-02-19T04:21:05;1.30;;;1.00;;
32786;SDS011;19139;49.372;8.580;2023-02-19T04:23:35;1.53;;;1.20;;
32786;SDS011;19139;49.372;8.580;2023-02-19T04:26:07;1.60;;;1.00;;
32786;SDS011;19139;49.372;8.580;2023-02-19T04:28:35;1.67;;;1.03;;
32786;SDS011;19139;49.372;8.580;2023-02-19T04:31:03;2.13;;;1.40;;
32786;SDS011;19139;49.372;8.580;2023-02-19T04:33:30;1.60;;;1.20;;
32786;SDS011;19139;49.372;8.580;2023-02-19T04:35:56;2.13;;;1.00;;
32786;SDS011;19139;49.372;8.580;2023-02-19T04:38:23;2.20;;;1.20;;
32786;SDS011;19139;49.372;8.580;2023-02-19T04:40:50;1.00;;;0.77;;
32786;SDS011;19139;49.372;8.580;2023-02-19T04:43:16;1.60;;;1.00;;
32786;SDS011;19139;49.372;8.580;2023-02-19T04:45:43;1.70;;;1.00;;
32786;SDS011;19139;49.372;8.580;2023-02-19T04:48:10;1.63;;;1.13;;
32786;SDS011;19139;49.372;8.580;2023-02-19T04:50:37;1.20;;;1.00;;
32786;SDS011;19139;49.372;8.580;2023-02-19T04:53:05;1.80;;;1.00;;
32786;SDS011;19139;49.372;8.580;2023-02-19T04:55:35;1.70;;;1.30;;
32786;SDS011;19139;49.372;8.580;2023-02-19T04:58:03;1.00;;;0.80;;
32786;SDS011;19139;49.372;8.580;2023-02-19T05:00:30;1.63;;;0.90;;
32786;SDS011;19139;49.372;8.580;2023-02-19T05:02:56;1.23;;;0.90;;
32786;SDS011;19139;49.372;8.580;2023-02-19T05:05:23;1.00;;;0.60;;
32786;SDS011;19139;49.372;8.580;2023-02-19T05:07:49;1.20;;;1.00;;
32786;SDS011;19139;49.372;8.580;2023-02-19T05:10:16;1.40;;;0.80;;
32786;SDS011;19139;49.372;8.580;2023-02-19T05:12:43;1.30;;;0.90;;
32786;SDS011;19139;49.372;8.580;2023-02-19T05:15:09;1.13;;;1.00;;
32786;SDS011;19139;49.372;8.580;2023-02-19T05:17:36;1.10;;;0.90;;
32786;SDS011;19139;49.372;8.580;2023-02-19T05:20:03;1.00;;;0.90;;
32786;SDS011;19139;49.372;8.580;2023-02-19T05:22:29;1.10;;;0.70;;
32786;SDS011;19139;49.372;8.580;2023-02-19T05:24:56;2.13;;;1.57;;
32786;SDS011;19139;49.372;8.580;2023-02-19T05:27:23;1.83;;;0.97;;
32786;SDS011;19139;49.372;8.580;2023-02-19T05:29:49;1.23;;;0.73;;
32786;SDS011;19139;49.372;8.580;2023-02-19T05:32:16;1.27;;;1.17;;
32786;SDS011;19139;49.372;8.580;2023-02-19T05:34:42;0.97;;;0.70;;
32786;SDS011;19139;49.372;8.580;2023-02-19T05:37:09;0.80;;;0.70;;
32786;SDS011;19139;49.372;8.580;2023-02-19T05:39:35;1.47;;;1.00;;
32786;SDS011;19139;49.372;8.580;2023-02-19T05:42:02;1.20;;;0.90;;
32786;SDS011;19139;49.372;8.580;2023-02-19T05:44:29;2.17;;;0.80;;
32786;SDS011;19139;49.372;8.580;2023-02-19T05:46:55;1.00;;;0.70;;
32786;SDS011;19139;49.372;8.580;2023-02-19T05:49:22;1.10;;;0.70;;
32786;SDS011;19139;49.372;8.580;2023-02-19T05:51:49;1.50;;;0.80;;
32786;SDS011;19139;49.372;8.580;2023-02-19T05:54:16;0.87;;;0.70;;
32786;SDS011;19139;49.372;8.580;2023-02-19T05:56:42;1.10;;;0.77;;
32786;SDS011;19139;49.372;8.580;2023-02-19T05:59:16;2.20;;;1.03;;
32786;SDS011;19139;49.372;8.580;2023-02-19T06:01:45;1.23;;;0.77;;
32786;SDS011;19139;49.372;8.580;2023-02-19T06:04:13;1.73;;;0.97;;
32786;SDS011;19139;49.372;8.580;2023-02-19T06:06:42;1.20;;;0.83;;
32786;SDS011;19139;49.372;8.580;2023-02-19T06:09:08;1.43;;;0.97;;
32786;SDS011;19139;49.372;8.580;2023-02-19T06:11:36;1.50;;;0.70;;
32786;SDS011;19139;49.372;8.580;2023-02-19T06:14:03;1.60;;;1.20;;
32786;SDS011;19139;49.372;8.580;2023-02-19T06:16:30;1.73;;;0.77;;
32786;SDS011;19139;49.372;8.580;2023-02-19T06:19:00;1.40;;;0.77;;
32786;SDS011;19139;49.372;8.580;2023-02-19T06:21:29;0.80;;;0.80;;
32786;SDS011;19139;49.372;8.580;2023-02-19T06:23:55;1.03;;;0.80;;
32786;SDS011;19139;49.372;8.580;2023-02-19T06:26:23;1.47;;;0.83;;
32786;SDS011;19139;49.372;8.580;2023-02-19T06:28:50;1.03;;;0.73;;
32786;SDS011;19139;49.372;8.580;2023-02-19T06:31:23;1.43;;;0.90;;
32786;SDS011;19139;49.372;8.580;2023-02-19T06:33:50;1.27;;;0.60;;
32786;SDS011;19139;49.372;8.580;2023-02-19T06:36:17;0.97;;;0.77;;
32786;SDS011;19139;49.372;8.580;2023-02-19T06:38:45;1.30;;;0.80;;
32786;SDS011;19139;49.372;8.580;2023-02-19T06:41:12;0.60;;;0.60;;
32786;SDS011;19139;49.372;8.580;2023-02-19T06:43:39;1.00;;;0.60;;
32786;SDS011;19139;49.372;8.580;2023-02-19T06:46:07;1.93;;;0.60;;
32786;SDS011;19139;49.372;8.580;2023-02-19T06:48:34;1.73;;;0.87;;
32786;SDS011;19139;49.372;8.580;2023-02-19T06:51:01;1.13;;;0.70;;
32786;SDS011;19139;49.372;8.580;2023-02-19T06:53:33;0.77;;;0.60;;
32786;SDS011;19139;49.372;8.580;2023-02-19T06:56:02;1.20;;;0.77;;
32786;SDS011;19139;49.372;8.580;2023-02-19T06:58:30;1.43;;;0.97;;
32786;SDS011;19139;49.372;8.580;2023-02-19T07:01:02;0.97;;;0.60;;
32786;SDS011;19139;49.372;8.580;2023-02-19T07:03:29;1.20;;;0.90;;
32786;SDS011;19139;49.372;8.580;2023-02-19T07:05:58;1.00;;;0.70;;
32786;SDS011;19139;49.372;8.580;2023-02-19T07:08:25;1.10;;;0.70;;
32786;SDS011;19139;49.372;8.580;2023-02-19T07:10:55;1.00;;;0.80;;
32786;SDS011;19139;49.372;8.580;2023-02-19T07:13:26;0.70;;;0.63;;
32786;SDS011;19139;49.372;8.580;2023-02-19T07:16:01;2.20;;;1.27;;
32786;SDS011;19139;49.372;8.580;2023-02-19T07:18:30;0.67;;;0.50;;
32786;SDS011;19139;49.372;8.580;2023-02-19T07:21:03;0.83;;;0.57;;
32786;SDS011;19139;49.372;8.580;2023-02-19T07:23:30;1.73;;;0.73;;
32786;SDS011;19139;49.372;8.580;2023-02-19T07:26:01;1.80;;;0.60;;
32786;SDS011;19139;49.372;8.580;2023-02-19T07:28:29;1.27;;;0.90;;
32786;SDS011;19139;49.372;8.580;2023-02-19T07:30:59;0.93;;;0.83;;
32786;SDS011;19139;49.372;8.580;2023-02-19T07:33:26;3.20;;;0.77;;
32786;SDS011;19139;49.372;8.580;2023-02-19T07:35:53;0.80;;;0.47;;
32786;SDS011;19139;49.372;8.580;2023-02-19T07:38:20;0.67;;;0.50;;
32786;SDS011;19139;49.372;8.580;2023-02-19T07:40:53;1.20;;;0.97;;
32786;SDS011;19139;49.372;8.580;2023-02-19T07:43:22;0.80;;;0.60;;
32786;SDS011;19139;49.372;8.580;2023-02-19T07:45:49;1.43;;;0.90;;
32786;SDS011;19139;49.372;8.580;2023-02-19T07:48:16;0.90;;;0.60;;
32786;SDS011;19139;49.372;8.580;2023-02-19T07:50:53;1.80;;;0.80;;
32786;SDS011;19139;49.372;8.580;2023-02-19T07:53:23;0.70;;;0.50;;
32786;SDS011;19139;49.372;8.580;2023-02-19T07:55:50;0.80;;;0.70;;
32786;SDS011;19139;49.372;8.580;2023-02-19T07:58:22;0.60;;;0.50;;
32786;SDS011;19139;49.372;8.580;2023-02-19T08:00:49;0.60;;;0.57;;
32786;SDS011;19139;49.372;8.580;2023-02-19T08:03:15;0.93;;;0.73;;
32786;SDS011;19139;49.372;8.580;2023-02-19T08:05:42;1.10;;;0.70;;
32786;SDS011;19139;49.372;8.580;2023-02-19T08:08:10;1.27;;;0.70;;
32786;SDS011;19139;49.372;8.580;2023-02-19T08:10:39;0.97;;;0.73;;
32786;SDS011;19139;49.372;8.580;2023-02-19T08:13:25;1.13;;;0.70;;
32786;SDS011;19139;49.372;8.580;2023-02-19T08:16:04;1.90;;;0.73;;
32786;SDS011;19139;49.372;8.580;2023-02-19T08:18:47;0.93;;;0.70;;
32786;SDS011;19139;49.372;8.580;2023-02-19T08:21:14;0.60;;;0.50;;
32786;SDS011;19139;49.372;8.580;2023-02-19T08:23:43;1.13;;;0.80;;
32786;SDS011;19139;49.372;8.580;2023-02-19T08:26:11;0.77;;;0.60;;
32786;SDS011;19139;49.372;8.580;2023-02-19T08:28:43;1.50;;;0.70;;
32786;SDS011;19139;49.372;8.580;2023-02-19T08:31:10;0.90;;;0.70;;
32786;SDS011;19139;49.372;8.580;2023-02-19T08:33:42;1.23;;;0.60;;
32786;SDS011;19139;49.372;8.580;2023-02-19T08:36:09;1.73;;;0.83;;
32786;SDS011;19139;49.372;8.580;2023-02-19T08:38:41;1.77;;;0.63;;
32786;SDS011;19139;49.372;8.580;2023-02-19T08:41:13;1.30;;;0.60;;
32786;SDS011;19139;49.372;8.580;2023-02-19T08:43:40;0.60;;;0.60;;
32786;SDS011;19139;49.372;8.580;2023-02-19T08:46:12;0.60;;;0.43;;
32786;SDS011;19139;49.372;8.580;2023-02-19T08:48:39;1.27;;;0.77;;
32786;SDS011;19139;49.372;8.580;2023-02-19T08:51:10;1.17;;;0.60;;
32786;SDS011;19139;49.372;8.580;2023-02-19T08:53:42;1.27;;;0.60;;
32786;SDS011;19139;49.372;8.580;2023-02-19T08:56:13;0.70;;;0.70;;
32786;SDS011;19139;49.372;8.580;2023-02-19T08:58:41;1.27;;;0.77;;
32786;SDS011;19139;49.372;8.580;2023-02-19T09:01:14;0.70;;;0.50;;
32786;SDS011;19139;49.372;8.580;2023-02-19T09:03:48;0.90;;;0.70;;
32786;SDS011;19139;49.372;8.580;2023-02-19T09:06:19;0.60;;;0.50;;
32786;SDS011;19139;49.372;8.580;2023-02-19T09:08:51;1.00;;;0.60;;
32786;SDS011;19139;49.372;8.580;2023-02-19T09:11:22;0.70;;;0.40;;
32786;SDS011;19139;49.372;8.580;2023-02-19T09:13:49;0.70;;;0.60;;
32786;SDS011;19139;49.372;8.580;2023-02-19T09:16:20;0.67;;;0.50;;
32786;SDS011;19139;49.372;8.580;2023-02-19T09:18:52;1.77;;;0.90;;
32786;SDS011;19139;49.372;8.580;2023-02-19T09:21:19;0.83;;;0.60;;
32786;SDS011;19139;49.372;8.580;2023-02-19T09:23:50;0.70;;;0.53;;
32786;SDS011;19139;49.372;8.580;2023-02-19T09:26:22;2.07;;;1.30;;
32786;SDS011;19139;49.372;8.580;2023-02-19T09:28:50;2.33;;;2.00;;
32786;SDS011;19139;49.372;8.580;2023-02-19T09:31:21;2.60;;;2.33;;
32786;SDS011;19139;49.372;8.580;2023-02-19T09:33:53;4.30;;;2.27;;
32786;SDS011;19139;49.372;8.580;2023-02-19T09:36:19;4.30;;;2.20;;
32786;SDS011;19139;49.372;8.580;2023-02-19T09:38:51;1.90;;;1.80;;
32786;SDS011;19139;49.372;8.580;2023-02-19T09:44:01;4.27;;;2.00;;
32786;SDS011;19139;49.372;8.580;2023-02-19T09:49:28;3.30;;;1.93;;
32786;SDS011;19139;49.372;8.580;2023-02-19T09:54:40;1.87;;;1.47;;
32786;SDS011;19139;49.372;8.580;2023-02-19T09:57:13;2.60;;;1.40;;
32786;SDS011;19139;49.372;8.580;2023-02-19T09:59:49;3.37;;;1.53;;
32786;SDS011;19139;49.372;8.580;2023-02-19T10:02:19;3.93;;;1.70;;
32786;SDS011;19139;49.372;8.580;2023-02-19T10:04:52;2.97;;;1.57;;
32786;SDS011;19139;49.372;8.580;2023-02-19T10:07:20;2.90;;;2.17;;
32786;SDS011;19139;49.372;8.580;2023-02-19T10:09:56;2.23;;;1.30;;
32786;SDS011;19139;49.372;8.580;2023-02-19T10:12:31;1.53;;;1.33;;
32786;SDS011;19139;49.372;8.580;2023-02-19T10:15:46;1.73;;;1.20;;
32786;SDS011;19139;49.372;8.580;2023-02-19T10:17:50;3.30;;;1.60;;
32786;SDS011;19139;49.372;8.580;2023-02-19T10:20:21;1.73;;;1.33;;
32786;SDS011;19139;49.372;8.580;2023-02-19T10:22:59;4.13;;;1.10;;
32786;SDS011;19139;49.372;8.580;2023-02-19T10:25:33;2.53;;;1.30;;
32786;SDS011;19139;49.372;8.580;2023-02-19T10:28:01;3.53;;;1.27;;
32786;SDS011;19139;49.372;8.580;2023-02-19T10:30:33;2.93;;;1.20;;
32786;SDS011;19139;49.372;8.580;2023-02-19T10:33:14;3.50;;;1.27;;
32786;SDS011;19139;49.372;8.580;2023-02-19T10:35:52;8.83;;;3.00;;
32786;SDS011;19139;49.372;8.580;2023-02-19T10:38:26;1.83;;;1.07;;
32786;SDS011;19139;49.372;8.580;2023-02-19T10:41:03;10.70;;;1.93;;
32786;SDS011;19139;49.372;8.580;2023-02-19T10:43:42;3.87;;;1.50;;
32786;SDS011;19139;49.372;8.580;2023-02-19T10:46:29;2.00;;;1.13;;
32786;SDS011;19139;49.372;8.580;2023-02-19T10:49:06;2.83;;;0.73;;
32786;SDS011;19139;49.372;8.580;2023-02-19T10:51:49;2.23;;;1.10;;
32786;SDS011;19139;49.372;8.580;2023-02-19T10:56:50;4.20;;;1.37;;
32786;SDS011;19139;49.372;8.580;2023-02-19T11:04:30;2.63;;;1.37;;
32786;SDS011;19139;49.372;8.580;2023-02-19T11:07:10;3.53;;;1.00;;
32786;SDS011;19139;49.372;8.580;2023-02-19T11:09:48;2.37;;;0.83;;
32786;SDS011;19139;49.372;8.580;2023-02-19T11:12:26;2.67;;;1.00;;
32786;SDS011;19139;49.372;8.580;2023-02-19T11:15:01;2.87;;;1.00;;
32786;SDS011;19139;49.372;8.580;2023-02-19T11:18:04;1.60;;;1.10;;
32786;SDS011;19139;49.372;8.580;2023-02-19T11:20:50;2.13;;;0.70;;
32786;SDS011;19139;49.372;8.580;2023-02-19T11:23:24;1.63;;;0.70;;
32786;SDS011;19139;49.372;8.580;2023-02-19T11:26:04;2.17;;;0.90;;
32786;SDS011;19139;49.372;8.580;2023-02-19T11:28:39;5.13;;;1.00;;
32786;SDS011;19139;49.372;8.580;2023-02-19T11:33:57;2.63;;;1.07;;
32786;SDS011;19139;49.372;8.580;2023-02-19T11:36:35;1.40;;;0.90;;
32786;SDS011;19139;49.372;8.580;2023-02-19T11:44:17;3.20;;;1.20;;
32786;SDS011;19139;49.372;8.580;2023-02-19T11:46:57;2.70;;;0.80;;
32786;SDS011;19139;49.372;8.580;2023-02-19T11:52:35;1.63;;;0.70;;
32786;SDS011;19139;49.372;8.580;2023-02-19T12:01:35;2.00;;;0.80;;
32786;SDS011;19139;49.372;8.580;2023-02-19T12:04:26;2.67;;;1.17;;
32786;SDS011;19139;49.372;8.580;2023-02-19T12:10:10;3.07;;;0.93;;
32786;SDS011;19139;49.372;8.580;2023-02-19T12:13:09;2.20;;;0.83;;
32786;SDS011;19139;49.372;8.580;2023-02-19T12:18:55;1.47;;;0.80;;
32786;SDS011;19139;49.372;8.580;2023-02-19T12:35:25;1.17;;;0.77;;
32786;SDS011;19139;49.372;8.580;2023-02-19T12:43:44;1.97;;;0.60;;
32786;SDS011;19139;49.372;8.580;2023-02-19T12:46:26;1.00;;;0.80;;
32786;SDS011;19139;49.372;8.580;2023-02-19T12:49:11;1.53;;;0.83;;
32786;SDS011;19139;49.372;8.580;2023-02-19T12:52:02;2.50;;;0.70;;
32786;SDS011;19139;49.372;8.580;2023-02-19T12:54:40;1.27;;;0.70;;
32786;SDS011;19139;49.372;8.580;2023-02-19T12:57:22;1.00;;;0.70;;
32786;SDS011;19139;49.372;8.580;2023-02-19T13:03:03;1.63;;;0.70;;
32786;SDS011;19139;49.372;8.580;2023-02-19T13:05:43;1.17;;;0.60;;
32786;SDS011;19139;49.372;8.580;2023-02-19T13:13:51;1.80;;;0.87;;
32786;SDS011;19139;49.372;8.580;2023-02-19T13:16:30;2.23;;;0.93;;
32786;SDS011;19139;49.372;8.580;2023-02-19T13:19:03;1.90;;;0.57;;
32786;SDS011;19139;49.372;8.580;2023-02-19T13:21:31;2.37;;;0.77;;
32786;SDS011;19139;49.372;8.580;2023-02-19T13:24:21;2.10;;;0.90;;
32786;SDS011;19139;49.372;8.580;2023-02-19T13:38:20;1.73;;;0.70;;
32786;SDS011;19139;49.372;8.580;2023-02-19T13:40:56;1.17;;;0.67;;
32786;SDS011;19139;49.372;8.580;2023-02-19T13:43:31;2.00;;;0.63;;
32786;SDS011;19139;49.372;8.580;2023-02-19T13:46:09;1.57;;;0.50;;
32786;SDS011;19139;49.372;8.580;2023-02-19T13:48:39;1.70;;;0.77;;
32786;SDS011;19139;49.372;8.580;2023-02-19T14:04:22;1.03;;;0.70;;
32786;SDS011;19139;49.372;8.580;2023-02-19T14:14:43;1.43;;;0.60;;
32786;SDS011;19139;49.372;8.580;2023-02-19T14:17:36;0.90;;;0.60;;
32786;SDS011;19139;49.372;8.580;2023-02-19T14:23:00;1.37;;;0.70;;
32786;SDS011;19139;49.372;8.580;2023-02-19T14:25:40;1.10;;;0.90;;
32786;SDS011;19139;49.372;8.580;2023-02-19T14:28:36;1.80;;;0.90;;
32786;SDS011;19139;49.372;8.580;2023-02-19T14:33:53;2.20;;;0.87;;
32786;SDS011;19139;49.372;8.580;2023-02-19T14:38:52;1.17;;;0.60;;
32786;SDS011;19139;49.372;8.580;2023-02-19T14:41:23;0.93;;;0.60;;
32786;SDS011;19139;49.372;8.580;2023-02-19T14:43:51;3.03;;;1.47;;
32786;SDS011;19139;49.372;8.580;2023-02-19T14:46:31;2.27;;;0.70;;
32786;SDS011;19139;49.372;8.580;2023-02-19T14:49:45;1.00;;;0.60;;
32786;SDS011;19139;49.372;8.580;2023-02-19T14:52:05;2.00;;;1.07;;
32786;SDS011;19139;49.372;8.580;2023-02-19T14:54:42;0.83;;;0.70;;
32786;SDS011;19139;49.372;8.580;2023-02-19T14:57:21;1.23;;;1.00;;
32786;SDS011;19139;49.372;8.580;2023-02-19T14:59:58;2.40;;;0.70;;
32786;SDS011;19139;49.372;8.580;2023-02-19T15:02:31;1.83;;;0.90;;
32786;SDS011;19139;49.372;8.580;2023-02-19T15:05:05;1.37;;;0.70;;
32786;SDS011;19139;49.372;8.580;2023-02-19T15:07:48;1.00;;;0.50;;
32786;SDS011;19139;49.372;8.580;2023-02-19T15:10:21;1.60;;;0.80;;
32786;SDS011;19139;49.372;8.580;2023-02-19T15:12:53;1.40;;;0.70;;
32786;SDS011;19139;49.372;8.580;2023-02-19T15:15:37;3.10;;;0.87;;
32786;SDS011;19139;49.372;8.580;2023-02-19T15:18:20;1.97;;;0.73;;
32786;SDS011;19139;49.372;8.580;2023-02-19T15:20:57;2.23;;;0.97;;
32786;SDS011;19139;49.372;8.580;2023-02-19T15:23:33;3.63;;;0.60;;
32786;SDS011;19139;49.372;8.580;2023-02-19T15:26:13;1.87;;;0.97;;
32786;SDS011;19139;49.372;8.580;2023-02-19T15:28:45;2.23;;;0.70;;
32786;SDS011;19139;49.372;8.580;2023-02-19T15:31:13;1.00;;;0.73;;
32786;SDS011;19139;49.372;8.580;2023-02-19T15:33:49;1.03;;;0.70;;
32786;SDS011;19139;49.372;8.580;2023-02-19T15:36:22;2.10;;;0.70;;
32786;SDS011;19139;49.372;8.580;2023-02-19T15:38:58;1.00;;;0.60;;
32786;SDS011;19139;49.372;8.580;2023-02-19T15:41:33;1.47;;;0.70;;
32786;SDS011;19139;49.372;8.580;2023-02-19T15:44:10;1.00;;;0.70;;
32786;SDS011;19139;49.372;8.580;2023-02-19T15:46:54;3.27;;;1.07;;
32786;SDS011;19139;49.372;8.580;2023-02-19T15:49:29;2.27;;;0.60;;
32786;SDS011;19139;49.372;8.580;2023-02-19T15:52:15;1.50;;;0.70;;
32786;SDS011;19139;49.372;8.580;2023-02-19T15:55:01;3.73;;;0.80;;
32786;SDS011;19139;49.372;8.580;2023-02-19T15:57:42;1.67;;;0.70;;
32786;SDS011;19139;49.372;8.580;2023-02-19T16:00:31;3.07;;;0.57;;
32786;SDS011;19139;49.372;8.580;2023-02-19T16:03:17;1.77;;;0.60;;
32786;SDS011;19139;49.372;8.580;2023-02-19T16:08:34;1.83;;;0.70;;
32786;SDS011;19139;49.372;8.580;2023-02-19T16:19:54;1.93;;;1.07;;
32786;SDS011;19139;49.372;8.580;2023-02-19T16:22:28;1.37;;;1.03;;
32786;SDS011;19139;49.372;8.580;2023-02-19T16:25:02;1.97;;;1.13;;
32786;SDS011;19139;49.372;8.580;2023-02-19T16:27:37;2.10;;;0.93;;
32786;SDS011;19139;49.372;8.580;2023-02-19T16:35:49;1.33;;;0.60;;
32786;SDS011;19139;49.372;8.580;2023-02-19T16:38:22;2.20;;;0.93;;
32786;SDS011;19139;49.372;8.580;2023-02-19T16:41:12;1.63;;;0.60;;
32786;SDS011;19139;49.372;8.580;2023-02-19T16:43:43;1.47;;;0.87;;
32786;SDS011;19139;49.372;8.580;2023-02-19T16:46:15;1.00;;;0.77;;
32786;SDS011;19139;49.372;8.580;2023-02-19T16:48:41;2.13;;;0.80;;
32786;SDS011;19139;49.372;8.580;2023-02-19T16:51:15;1.77;;;1.00;;
32786;SDS011;19139;49.372;8.580;2023-02-19T16:53:54;1.60;;;0.90;;
32786;SDS011;19139;49.372;8.580;2023-02-19T16:56:25;2.67;;;0.80;;
32786;SDS011;19139;49.372;8.580;2023-02-19T16:58:57;1.30;;;0.90;;
32786;SDS011;19139;49.372;8.580;2023-02-19T17:01:28;2.97;;;0.90;;
32786;SDS011;19139;49.372;8.580;2023-02-19T17:04:02;1.30;;;0.83;;
32786;SDS011;19139;49.372;8.580;2023-02-19T17:06:35;2.37;;;0.90;;
32786;SDS011;19139;49.372;8.580;2023-02-19T17:09:07;1.40;;;1.03;;
32786;SDS011;19139;49.372;8.580;2023-02-19T17:11:39;4.27;;;2.10;;
32786;SDS011;19139;49.372;8.580;2023-02-19T17:14:11;5.17;;;2.23;;
32786;SDS011;19139;49.372;8.580;2023-02-19T17:16:42;5.83;;;2.67;;
32786;SDS011;19139;49.372;8.580;2023-02-19T17:19:15;5.00;;;2.80;;
32786;SDS011;19139;49.372;8.580;2023-02-19T17:21:48;3.07;;;2.33;;
32786;SDS011;19139;49.372;8.580;2023-02-19T17:24:19;4.90;;;2.80;;
32786;SDS011;19139;49.372;8.580;2023-02-19T17:26:51;5.30;;;2.77;;
32786;SDS011;19139;49.372;8.580;2023-02-19T17:29:22;7.30;;;3.07;;
32786;SDS011;19139;49.372;8.580;2023-02-19T17:31:54;9.07;;;3.90;;
32786;SDS011;19139;49.372;8.580;2023-02-19T17:34:26;8.53;;;3.47;;
32786;SDS011;19139;49.372;8.580;2023-02-19T17:36:57;5.07;;;3.10;;
32786;SDS011;19139;49.372;8.580;2023-02-19T17:39:29;8.13;;;2.97;;
32786;SDS011;19139;49.372;8.580;2023-02-19T17:42:01;6.77;;;3.10;;
32786;SDS011;19139;49.372;8.580;2023-02-19T17:44:28;5.30;;;3.10;;
32786;SDS011;19139;49.372;8.580;2023-02-19T17:47:00;4.60;;;2.53;;
32786;SDS011;19139;49.372;8.580;2023-02-19T17:49:31;4.33;;;2.57;;
32786;SDS011;19139;49.372;8.580;2023-02-19T17:52:03;6.73;;;3.87;;
32786;SDS011;19139;49.372;8.580;2023-02-19T17:54:34;5.30;;;3.20;;
32786;SDS011;19139;49.372;8.580;2023-02-19T17:57:01;9.30;;;3.53;;
32786;SDS011;19139;49.372;8.580;2023-02-19T17:59:32;11.33;;;3.83;;
32786;SDS011;19139;49.372;8.580;2023-02-19T18:02:04;4.80;;;2.53;;